Terminal Aerodrome Forecast
Issued by NWS Cleveland, OH

Home | Current Version | Previous Version | Text Only | Print | Product List | Glossary On
Versions: 1 2 3 4 5 6 7 8 9 10 11 12 13 14 15 16 17 18 19 20 21 22 23 24 25 26 27 28 29 30
000
FTUS41 KCLE 042334
TAFCLE
TAF
KCLE 042334Z 0500/0606 20006KT P6SM SCT120 BKN250
     FM050200 14003KT P6SM SCT120 OVC250
     FM050800 18003KT 6SM BR BKN250
      TEMPO 0509/0513 5SM BR
     FM051300 18006KT P6SM SCT250
     FM051900 04006KT P6SM SCT050
     FM060000 12003KT P6SM BKN250=

USA.gov is the U.S. government's official web portal to all federal, state and local government web resources and services.